This is the latest recevied weather packets stored in our database for station/object KD5HIA. If no packets are shown the sender has not sent any weather packets the latest 10 day(s).
| Time | Temp. | Humidity | Pressure | Rain* | Wind** | Luminosity | Snow |
|---|---|---|---|---|---|---|---|
| 1777497916 | 17.78° C | 72% | 1013.4 hPa | 0 mm | - | 336 W/m² | - |
| 1777497316 | 17.78° C | 73% | 1013.4 hPa | 0 mm | - | 209 W/m² | - |
| 1777496716 | 17.78° C | 73% | 1013.4 hPa | 0 mm | - | 379 W/m² | - |
| 1777496117 | 17.78° C | 74% | 1013.3 hPa | 0 mm | - | 227 W/m² | - |
| 1777495516 | 17.78° C | 74% | 1013.2 hPa | 0 mm | - | 257 W/m² | - |
| 1777494916 | 17.22° C | 76% | 1013.7 hPa | 0 mm | - | 244 W/m² | - |
| 1777494316 | 17.22° C | 76% | 1013.6 hPa | 0 mm | - | 204 W/m² | - |
| 1777493716 | 16.67° C | 76% | 1013.6 hPa | 0 mm | - | 167 W/m² | - |
| 1777493116 | 16.67° C | 77% | 1013.5 hPa | 0 mm | - | 160 W/m² | - |
| 1777492516 | 17.22° C | 76% | 1013 hPa | 0 mm | - | 337 W/m² | - |
| 1777491916 | 16.67° C | 78% | 1013 hPa | 0 mm | - | 235 W/m² | - |
| 1777491316 | 16.67° C | 78% | 1013.4 hPa | 0 mm | - | 237 W/m² | - |
| 1777490716 | 16.67° C | 78% | 1013.3 hPa | 0 mm | - | 227 W/m² | - |
| 1777490116 | 16.67° C | 78% | 1013.4 hPa | 0 mm | - | 236 W/m² | - |
| 1777489516 | 17.22° C | 76% | 1013.4 hPa | 0 mm | - | 434 W/m² | - |
| 1777488916 | 16.67° C | 79% | 1013.5 hPa | 0 mm | - | 375 W/m² | - |
| 1777488316 | 16.67° C | 78% | 1013.9 hPa | 0 mm | - | 420 W/m² | - |
| 1777487716 | 16.11° C | 81% | 1014.3 hPa | 0 mm | - | 235 W/m² | - |
| 1777487116 | 16.11° C | 80% | 1014.8 hPa | 0 mm | - | 183 W/m² | - |
| 1777486516 | 16.11° C | 81% | 1014.8 hPa | 0 mm | - | 206 W/m² | - |
| 1777485916 | 16.11° C | 80% | 1015.1 hPa | 0 mm | - | 191 W/m² | - |
| 1777485317 | 16.11° C | 81% | 1015.3 hPa | 0 mm | - | 191 W/m² | - |
| 1777484716 | 16.11° C | 81% | 1015.3 hPa | 0 mm | - | 170 W/m² | - |
| 1777484116 | 16.11° C | 82% | 1015.8 hPa | 0 mm | - | 194 W/m² | - |
| 1777483516 | 16.11° C | 81% | 1015.9 hPa | 0 mm | - | 163 W/m² | - |
* Rain latest hour (hover to see other rain measurements)
** Current wind speed in m/s (hover to see current wind gust speed)